Terminal Aerodrome Forecast
Issued by NWS

Home | Current Version | Previous Version | Text Only | Print | Product List | Glossary On
Versions: 1 2 3 4 5 6 7 8 9 10 11 12 13 14 15 16 17
000
FTUS42 TJSJ 240937 AAD
TAFISX
TAF AMD
TISX 240937Z 2410/2506 VRB06KT 2SM -RA BKN025 OVC035
     FM241030 12010KT 5SM -RA SCT015 BKN035
     FM241300 12012KT P6SM VCTS SCT025CB BKN050
     FM242300 VRB06KT P6SM VCSH SCT020 BKN040=

USA.gov is the U.S. government's official web portal to all federal, state and local government web resources and services.